Time;durP1;ratioP1;P1;durP2;ratioP2;P2;SDS_P1;SDS_P2;PMS_P1;PMS_P2;Temp;Humidity;BMP_temperature;BMP_pressure;BME280_temperature;BME280_humidity;BME280_pressure;Samples;Min_cycle;Max_cycle;Signal;HPM_P1;HPM_P2
2023/04/16 00:00:13;;;;;;;0.93;0.93;;;18.20;63.40;;;;;;5064900;28;43468;-70
2023/04/16 00:02:41;;;;;;;1.00;1.00;;;18.20;63.50;;;;;;5064511;27;43473;-69
2023/04/16 00:05:09;;;;;;;1.10;1.10;;;18.10;63.50;;;;;;5064171;28;43422;-70
2023/04/16 00:07:38;;;;;;;1.37;1.37;;;18.10;63.50;;;;;;5068440;28;44273;-69
2023/04/16 00:10:07;;;;;;;1.13;1.13;;;18.10;63.60;;;;;;5066389;28;45056;-69
2023/04/16 00:12:35;;;;;;;1.20;1.20;;;18.20;63.50;;;;;;5067040;28;43442;-70
2023/04/16 00:15:03;;;;;;;1.00;1.00;;;18.20;63.10;;;;;;5066868;28;44042;-70
2023/04/16 00:17:35;;;;;;;1.10;1.10;;;18.30;63.00;;;;;;5066677;28;43603;-70
2023/04/16 00:20:03;;;;;;;1.10;1.10;;;18.30;62.90;;;;;;5064603;28;43839;-70
2023/04/16 00:22:31;;;;;;;1.20;1.20;;;18.30;63.00;;;;;;5068170;28;43477;-71
2023/04/16 00:24:59;;;;;;;1.20;1.20;;;18.20;63.00;;;;;;5068619;28;43434;-70
2023/04/16 00:27:27;;;;;;;1.00;1.00;;;18.20;63.00;;;;;;5068622;28;44030;-70
2023/04/16 00:29:55;;;;;;;1.10;1.10;;;18.20;63.00;;;;;;5071017;28;45475;-70
2023/04/16 00:32:23;;;;;;;1.17;1.17;;;18.20;63.20;;;;;;5065507;28;43734;-70
2023/04/16 00:34:52;;;;;;;1.20;1.20;;;18.20;63.30;;;;;;5066780;28;43575;-69
2023/04/16 00:37:20;;;;;;;0.93;0.93;;;18.20;63.40;;;;;;5066707;28;45757;-69
2023/04/16 00:39:48;;;;;;;1.10;1.10;;;18.10;63.40;;;;;;5066255;28;43442;-69
2023/04/16 00:42:16;;;;;;;1.00;1.00;;;18.20;63.30;;;;;;5064013;28;43477;-69
2023/04/16 00:44:44;;;;;;;1.00;1.00;;;18.20;63.30;;;;;;5063664;28;43593;-71
2023/04/16 00:47:12;;;;;;;1.20;1.20;;;18.10;63.30;;;;;;5063519;28;43913;-69
2023/04/16 00:49:40;;;;;;;1.10;1.10;;;18.10;63.40;;;;;;5067475;28;43433;-70
2023/04/16 00:52:10;;;;;;;1.10;1.10;;;18.10;63.50;;;;;;5065785;28;43434;-70
2023/04/16 00:54:38;;;;;;;0.90;0.90;;;18.10;63.50;;;;;;5068947;28;43582;-69
2023/04/16 00:57:06;;;;;;;1.00;1.00;;;18.20;63.40;;;;;;5065907;28;45992;-70
2023/04/16 00:59:34;;;;;;;1.00;1.00;;;18.30;63.10;;;;;;5065177;28;44721;-70
2023/04/16 01:02:02;;;;;;;1.10;1.10;;;18.30;62.80;;;;;;5062594;28;43496;-76
2023/04/16 01:04:32;;;;;;;1.37;1.20;;;18.40;62.80;;;;;;5059224;28;43534;-77
2023/04/16 01:07:00;;;;;;;1.20;1.10;;;18.30;62.70;;;;;;5066837;28;45796;-76
2023/04/16 01:09:30;;;;;;;1.00;1.00;;;18.30;63.00;;;;;;5067384;28;43399;-76
2023/04/16 01:11:57;;;;;;;1.00;1.00;;;18.30;62.90;;;;;;5066143;28;43490;-76
2023/04/16 01:14:25;;;;;;;1.10;1.10;;;18.30;63.00;;;;;;5062351;28;43562;-77
2023/04/16 01:16:53;;;;;;;1.00;1.00;;;18.20;63.00;;;;;;5067642;28;43751;-77
2023/04/16 01:19:21;;;;;;;1.07;1.07;;;18.20;63.10;;;;;;5058617;28;43451;-75
2023/04/16 01:21:53;;;;;;;1.00;1.00;;;18.20;63.30;;;;;;5065893;28;43583;-75
2023/04/16 01:24:21;;;;;;;1.00;1.00;;;18.20;63.30;;;;;;5067010;28;43453;-77
2023/04/16 01:26:49;;;;;;;1.10;1.10;;;18.20;63.20;;;;;;5064590;28;44054;-77
2023/04/16 01:29:17;;;;;;;0.87;0.87;;;18.20;63.30;;;;;;5064780;28;44944;-76
2023/04/16 01:31:45;;;;;;;1.07;1.07;;;18.10;63.30;;;;;;5064322;28;43489;-76
2023/04/16 01:34:22;;;;;;;1.37;1.00;;;18.10;63.40;;;;;;5061968;28;43505;-76
2023/04/16 01:36:50;;;;;;;1.23;1.23;;;18.10;64.10;;;;;;5069108;28;43747;-76
2023/04/16 01:39:22;;;;;;;1.10;1.10;;;18.10;63.40;;;;;;5067334;28;43531;-76
2023/04/16 01:41:50;;;;;;;1.30;1.10;;;18.10;63.20;;;;;;5064059;28;43431;-76
2023/04/16 01:44:22;;;;;;;0.90;0.90;;;18.10;63.30;;;;;;5067506;28;43557;-77
2023/04/16 01:46:49;;;;;;;1.07;1.07;;;18.10;63.30;;;;;;5064915;28;44228;-77
2023/04/16 01:49:17;;;;;;;1.13;1.10;;;18.10;63.50;;;;;;5067254;28;43384;-76
2023/04/16 01:51:45;;;;;;;1.00;1.00;;;18.10;63.50;;;;;;5061949;28;43533;-77
2023/04/16 01:54:14;;;;;;;1.10;1.10;;;18.10;63.30;;;;;;5066388;28;43429;-73
2023/04/16 01:56:43;;;;;;;1.00;1.00;;;18.20;63.20;;;;;;5066445;28;44311;-77
2023/04/16 01:59:12;;;;;;;1.07;1.07;;;18.30;62.80;;;;;;5065462;28;44598;-77
2023/04/16 02:01:42;;;;;;;1.10;1.10;;;18.40;62.60;;;;;;5047847;28;43393;-76
2023/04/16 02:04:10;;;;;;;1.00;1.00;;;18.40;62.50;;;;;;5066088;28;43533;-77
2023/04/16 02:06:38;;;;;;;0.90;0.90;;;18.30;62.60;;;;;;5065950;28;43828;-77
2023/04/16 02:09:06;;;;;;;1.00;1.00;;;18.40;62.80;;;;;;5051069;28;45150;-75
2023/04/16 02:11:37;;;;;;;0.90;0.90;;;18.30;62.60;;;;;;5052555;28;43370;-77
2023/04/16 02:14:07;;;;;;;1.00;1.00;;;18.30;62.80;;;;;;5066249;28;43469;-77
2023/04/16 02:16:36;;;;;;;1.00;1.00;;;18.30;62.80;;;;;;5063593;28;45032;-75
2023/04/16 02:19:11;;;;;;;0.97;0.97;;;18.20;63.00;;;;;;5056201;28;44796;-76
2023/04/16 02:21:41;;;;;;;0.93;0.93;;;18.20;63.10;;;;;;5065037;28;43504;-77
2023/04/16 02:24:09;;;;;;;0.93;0.93;;;18.20;63.10;;;;;;5065495;28;43399;-75
2023/04/16 02:26:37;;;;;;;0.90;0.90;;;18.20;63.20;;;;;;5061759;28;44760;-76
2023/04/16 02:29:13;;;;;;;1.07;1.07;;;18.20;63.20;;;;;;5060844;28;43941;-75
2023/04/16 02:31:46;;;;;;;1.13;1.13;;;18.10;63.30;;;;;;5064318;28;43664;-77
2023/04/16 02:34:14;;;;;;;1.13;1.13;;;18.10;63.30;;;;;;5065365;28;44418;-75
2023/04/16 02:36:42;;;;;;;1.10;1.10;;;18.10;63.20;;;;;;5066938;28;43902;-73
2023/04/16 02:39:10;;;;;;;1.03;1.03;;;18.10;63.10;;;;;;5065496;28;43538;-76
2023/04/16 02:41:40;;;;;;;0.90;0.90;;;18.10;63.20;;;;;;5063065;28;45210;-77
2023/04/16 02:44:08;;;;;;;1.03;1.03;;;18.10;63.20;;;;;;5067275;28;43643;-77
2023/04/16 02:46:37;;;;;;;0.90;0.90;;;18.10;63.30;;;;;;5066027;28;43947;-77
2023/04/16 02:49:05;;;;;;;0.90;0.90;;;18.10;63.40;;;;;;5055021;28;44418;-77
2023/04/16 02:51:33;;;;;;;1.10;1.10;;;18.10;63.30;;;;;;5063577;28;43866;-77
2023/04/16 02:54:01;;;;;;;1.00;1.00;;;18.20;63.10;;;;;;5066163;28;43525;-76
2023/04/16 02:56:30;;;;;;;1.10;1.10;;;18.20;62.80;;;;;;5062282;28;45716;-75
2023/04/16 02:58:58;;;;;;;0.90;0.90;;;18.30;62.60;;;;;;5061800;28;43646;-77
2023/04/16 03:01:27;;;;;;;0.90;0.90;;;18.40;62.40;;;;;;5062923;28;44165;-75
2023/04/16 03:03:56;;;;;;;1.07;1.07;;;18.30;62.30;;;;;;5063871;28;44511;-77
2023/04/16 03:06:25;;;;;;;1.03;1.03;;;18.30;62.60;;;;;;5063623;28;45629;-77
2023/04/16 03:08:52;;;;;;;1.00;1.00;;;18.30;62.50;;;;;;5053989;28;44699;-76
2023/04/16 03:11:20;;;;;;;1.10;1.10;;;18.30;62.50;;;;;;5063893;28;43370;-77
2023/04/16 03:13:48;;;;;;;1.10;1.10;;;18.30;62.70;;;;;;5065554;28;44096;-77
2023/04/16 03:16:16;;;;;;;1.20;1.20;;;18.20;62.70;;;;;;5063594;28;45852;-76
2023/04/16 03:18:44;;;;;;;1.80;1.70;;;18.20;62.90;;;;;;5065306;28;43686;-77
2023/04/16 03:21:14;;;;;;;4.90;1.70;;;18.20;63.10;;;;;;5066216;28;43447;-77
2023/04/16 03:23:42;;;;;;;1.80;1.70;;;18.20;63.10;;;;;;5064910;28;43927;-77
2023/04/16 03:26:10;;;;;;;1.63;1.57;;;18.20;62.90;;;;;;5063626;28;46055;-76
2023/04/16 03:28:38;;;;;;;1.63;1.63;;;18.10;63.00;;;;;;5062979;28;43471;-77
2023/04/16 03:31:06;;;;;;;2.57;2.33;;;18.10;63.20;;;;;;5062990;28;43613;-76
2023/04/16 03:33:35;;;;;;;4.83;2.87;;;18.10;63.30;;;;;;5055101;28;43650;-76
2023/04/16 03:36:05;;;;;;;4.57;2.93;;;18.10;63.20;;;;;;5068965;28;45543;-77
2023/04/16 03:38:34;;;;;;;4.10;2.90;;;18.10;63.00;;;;;;5064284;28;43545;-77
2023/04/16 03:41:02;;;;;;;3.60;2.63;;;18.10;63.00;;;;;;5047727;28;44069;-77
2023/04/16 03:43:33;;;;;;;4.73;3.00;;;18.10;63.30;;;;;;5066039;28;43511;-76
2023/04/16 03:46:01;;;;;;;7.90;3.03;;;18.10;63.40;;;;;;5052401;28;45639;-76
2023/04/16 03:48:29;;;;;;;9.20;4.77;;;18.00;63.30;;;;;;5066784;28;43476;-76
2023/04/16 03:50:58;;;;;;;8.00;4.30;;;18.10;63.20;;;;;;5068410;28;43513;-75
2023/04/16 03:53:28;;;;;;;11.37;4.93;;;18.20;62.90;;;;;;5051180;28;43429;-76
2023/04/16 03:55:58;;;;;;;7.33;4.30;;;18.30;62.70;;;;;;5050216;28;45988;-76
2023/04/16 03:58:27;;;;;;;10.13;4.60;;;18.40;62.40;;;;;;5066088;28;45699;-77
2023/04/16 04:00:56;;;;;;;8.07;4.10;;;18.40;62.20;;;;;;5066895;28;43476;-77
2023/04/16 04:03:25;;;;;;;8.97;4.30;;;18.30;62.40;;;;;;5070032;28;43591;-77
2023/04/16 04:05:55;;;;;;;7.73;4.20;;;18.30;62.30;;;;;;5064816;28;44900;-74
2023/04/16 04:08:27;;;;;;;8.87;3.90;;;18.30;62.30;;;;;;5063197;28;43733;-77
2023/04/16 04:10:56;;;;;;;7.67;4.30;;;18.30;62.60;;;;;;5069793;28;43466;-74
2023/04/16 04:13:25;;;;;;;6.93;3.80;;;18.30;62.80;;;;;;5066031;28;43495;-77
2023/04/16 04:15:54;;;;;;;11.87;5.10;;;18.20;62.80;;;;;;5066499;28;45618;-76
2023/04/16 04:18:23;;;;;;;10.90;4.83;;;18.20;62.80;;;;;;5065327;28;45093;-77
2023/04/16 04:20:51;;;;;;;10.40;5.27;;;18.20;62.60;;;;;;5062362;28;43460;-76
2023/04/16 04:23:23;;;;;;;8.23;4.37;;;18.20;62.70;;;;;;5066096;28;43572;-76
2023/04/16 04:25:51;;;;;;;8.40;4.27;;;18.20;62.90;;;;;;5066036;28;46325;-76
2023/04/16 04:28:20;;;;;;;8.63;4.70;;;18.20;63.10;;;;;;5062155;28;43731;-76
2023/04/16 04:30:48;;;;;;;9.87;5.47;;;18.20;63.10;;;;;;5068084;28;43406;-77
2023/04/16 04:33:16;;;;;;;8.93;4.83;;;18.10;62.90;;;;;;5069798;28;43420;-77
2023/04/16 04:35:45;;;;;;;11.10;5.23;;;18.20;62.80;;;;;;5065807;28;45619;-75
2023/04/16 04:38:18;;;;;;;8.73;5.30;;;18.20;62.60;;;;;;5066899;28;43444;-76
2023/04/16 04:40:46;;;;;;;11.03;5.40;;;18.30;62.40;;;;;;5067255;28;43493;-76
2023/04/16 04:43:15;;;;;;;7.43;4.50;;;18.30;62.50;;;;;;5066592;28;43930;-77
2023/04/16 04:45:46;;;;;;;9.40;5.23;;;18.30;62.70;;;;;;5067222;28;43823;-77
2023/04/16 04:48:14;;;;;;;14.33;6.47;;;18.20;62.60;;;;;;5066684;28;44451;-76
2023/04/16 04:50:42;;;;;;;9.93;5.17;;;18.20;63.20;;;;;;5056422;28;43417;-77
2023/04/16 04:53:10;;;;;;;11.90;4.93;;;18.20;62.40;;;;;;5065368;28;43953;-74
2023/04/16 04:55:38;;;;;;;8.40;4.97;;;18.20;62.60;;;;;;5066342;28;45735;-76
2023/04/16 04:58:06;;;;;;;8.30;5.20;;;18.20;62.90;;;;;;5066753;28;45086;-76
2023/04/16 05:00:36;;;;;;;10.30;5.37;;;18.20;63.00;;;;;;5066742;28;44202;-77
2023/04/16 05:03:10;;;;;;;9.73;5.53;;;18.10;62.70;;;;;;5067730;28;43630;-77
2023/04/16 05:05:38;;;;;;;12.00;5.50;;;18.20;62.70;;;;;;5065900;28;44047;-76
2023/04/16 05:08:06;;;;;;;9.37;5.13;;;18.30;62.60;;;;;;5065483;28;43525;-77
2023/04/16 05:10:34;;;;;;;10.00;5.37;;;18.30;62.20;;;;;;5064380;28;43477;-76
2023/04/16 05:13:02;;;;;;;8.00;5.07;;;18.30;62.10;;;;;;5066087;28;43648;-72
2023/04/16 05:15:30;;;;;;;10.23;5.33;;;18.30;62.40;;;;;;5074191;27;46277;-71
2023/04/16 05:17:58;;;;;;;8.60;5.53;;;18.30;62.40;;;;;;5069526;28;44464;-76
2023/04/16 05:20:27;;;;;;;10.27;5.57;;;18.30;62.40;;;;;;5067552;28;43474;-76
2023/04/16 05:22:55;;;;;;;6.77;5.07;;;18.30;62.40;;;;;;5067500;28;43577;-77
2023/04/16 05:25:23;;;;;;;11.43;5.47;;;18.20;62.50;;;;;;5065815;28;44055;-77
2023/04/16 05:27:51;;;;;;;6.83;4.90;;;18.20;62.70;;;;;;5063222;28;43470;-76
2023/04/16 05:30:19;;;;;;;7.57;4.83;;;18.20;62.90;;;;;;5067290;28;43468;-76
2023/04/16 05:32:47;;;;;;;9.37;5.30;;;18.20;62.80;;;;;;5066588;28;43427;-77
2023/04/16 05:35:15;;;;;;;8.33;5.07;;;18.10;62.60;;;;;;5055075;28;46302;-76
2023/04/16 05:37:50;;;;;;;7.70;5.10;;;18.10;62.60;;;;;;5066622;28;43381;-76
2023/04/16 05:40:18;;;;;;;6.07;4.50;;;18.10;62.90;;;;;;5067486;28;44001;-76
2023/04/16 05:42:46;;;;;;;7.97;5.40;;;18.10;62.90;;;;;;5068289;28;43474;-72
2023/04/16 05:45:14;;;;;;;10.13;5.80;;;18.10;62.90;;;;;;5066874;28;43882;-76
2023/04/16 05:47:42;;;;;;;7.83;4.80;;;18.10;62.90;;;;;;5051499;28;44746;-76
2023/04/16 05:50:11;;;;;;;7.43;5.03;;;18.20;62.70;;;;;;5072041;28;43394;-74
2023/04/16 05:52:39;;;;;;;7.97;5.30;;;18.20;62.40;;;;;;5066140;28;43850;-77
2023/04/16 05:55:09;;;;;;;7.00;5.13;;;18.30;62.30;;;;;;5066605;28;44113;-76
2023/04/16 05:57:37;;;;;;;8.60;5.00;;;18.20;62.30;;;;;;5066342;28;44770;-76
2023/04/16 06:00:06;;;;;;;9.20;5.17;;;18.20;62.50;;;;;;5066259;28;44125;-77
2023/04/16 06:02:40;;;;;;;7.47;5.10;;;18.20;62.50;;;;;;5064663;28;43879;-77
2023/04/16 06:05:09;;;;;;;7.80;5.03;;;18.20;62.40;;;;;;5061074;28;45827;-74
2023/04/16 06:07:37;;;;;;;6.00;5.07;;;18.20;62.50;;;;;;5069232;28;43407;-77
2023/04/16 06:10:05;;;;;;;6.50;4.70;;;18.20;62.70;;;;;;5061432;28;44133;-75
2023/04/16 06:12:35;;;;;;;7.63;5.37;;;18.20;62.90;;;;;;5061651;28;44036;-74
2023/04/16 06:15:03;;;;;;;6.00;4.83;;;18.10;62.90;;;;;;5064088;28;43931;-76
2023/04/16 06:17:31;;;;;;;9.37;5.53;;;18.10;62.70;;;;;;5061527;28;44643;-73
2023/04/16 06:20:03;;;;;;;5.37;4.87;;;18.10;62.60;;;;;;5059519;28;44018;-76
2023/04/16 06:22:34;;;;;;;6.47;5.10;;;18.10;62.70;;;;;;5066498;28;43390;-77
2023/04/16 06:25:02;;;;;;;5.63;4.63;;;18.10;62.90;;;;;;5059687;28;45634;-77
2023/04/16 06:27:31;;;;;;;7.00;5.10;;;18.10;63.70;;;;;;5065198;28;45194;-71
2023/04/16 06:30:03;;;;;;;6.70;4.73;;;18.10;62.90;;;;;;5064843;28;43451;-77
2023/04/16 06:32:31;;;;;;;8.17;5.40;;;18.10;62.90;;;;;;5066919;28;43599;-74
2023/04/16 06:34:59;;;;;;;5.40;4.73;;;18.20;62.70;;;;;;5066387;28;44683;-77
2023/04/16 06:37:27;;;;;;;8.43;5.00;;;18.30;62.30;;;;;;5064626;28;44807;-77
2023/04/16 06:39:55;;;;;;;5.83;4.70;;;18.30;62.00;;;;;;5066166;28;43543;-71
2023/04/16 06:42:23;;;;;;;6.43;4.80;;;18.30;62.00;;;;;;5066770;28;43414;-77
2023/04/16 06:44:50;;;;;;;5.57;4.97;;;18.30;62.20;;;;;;5065977;28;44077;-77
2023/04/16 06:47:20;;;;;;;5.77;4.60;;;18.30;62.30;;;;;;5065622;28;43422;-77
2023/04/16 06:49:48;;;;;;;6.33;5.00;;;18.30;62.20;;;;;;5067001;28;43400;-76
2023/04/16 06:52:16;;;;;;;4.90;4.40;;;18.20;62.20;;;;;;5065123;28;43991;-76
2023/04/16 06:54:44;;;;;;;5.17;4.57;;;18.20;62.50;;;;;;5066116;28;43857;-76
2023/04/16 06:57:11;;;;;;;5.73;5.20;;;18.20;62.60;;;;;;5065665;28;43502;-77
2023/04/16 06:59:39;;;;;;;5.80;4.67;;;18.20;62.80;;;;;;5065467;28;43509;-76
2023/04/16 07:02:08;;;;;;;5.77;4.70;;;18.10;62.50;;;;;;5061086;28;44196;-76
2023/04/16 07:04:38;;;;;;;5.90;4.60;;;18.10;62.50;;;;;;5067832;28;43856;-77
2023/04/16 07:07:06;;;;;;;4.90;4.40;;;18.10;62.60;;;;;;5064893;28;44063;-76
2023/04/16 07:09:33;;;;;;;5.37;4.90;;;18.10;62.80;;;;;;5065850;28;43484;-77
2023/04/16 07:12:01;;;;;;;6.90;5.07;;;18.10;62.90;;;;;;5064978;28;43450;-76
2023/04/16 07:14:29;;;;;;;7.03;5.33;;;18.10;62.90;;;;;;5065345;28;43836;-77
2023/04/16 07:16:57;;;;;;;6.20;5.20;;;18.10;62.80;;;;;;5052144;28;44984;-74
2023/04/16 07:19:29;;;;;;;6.70;5.00;;;18.20;62.70;;;;;;5062282;28;43463;-76
2023/04/16 07:21:58;;;;;;;6.10;4.87;;;18.20;62.30;;;;;;5065117;28;43534;-77
2023/04/16 07:24:26;;;;;;;5.10;4.60;;;18.30;62.20;;;;;;5064620;28;43908;-77
2023/04/16 07:26:54;;;;;;;6.03;5.07;;;18.30;62.10;;;;;;5061959;28;44649;-76
2023/04/16 07:29:22;;;;;;;5.00;4.60;;;18.20;62.20;;;;;;5063729;28;43769;-76
2023/04/16 07:31:50;;;;;;;5.37;4.83;;;18.20;62.20;;;;;;5065101;28;43839;-76
2023/04/16 07:34:18;;;;;;;5.97;4.77;;;18.20;62.10;;;;;;5060542;28;45451;-76
2023/04/16 07:36:46;;;;;;;4.27;3.93;;;18.20;62.30;;;;;;5055525;28;43520;-77
2023/04/16 07:39:19;;;;;;;5.10;4.70;;;18.20;62.50;;;;;;5064731;28;43975;-76
2023/04/16 07:41:49;;;;;;;5.23;4.50;;;18.10;62.60;;;;;;5063279;28;43657;-76
2023/04/16 07:44:17;;;;;;;5.43;4.90;;;18.10;62.60;;;;;;5059668;28;45807;-76
2023/04/16 07:46:45;;;;;;;5.50;4.60;;;18.10;62.60;;;;;;5061747;28;43502;-77
2023/04/16 07:49:14;;;;;;;4.63;4.23;;;18.10;62.50;;;;;;5065918;28;43593;-75
2023/04/16 07:51:42;;;;;;;4.47;4.07;;;18.10;62.70;;;;;;5066124;28;43464;-77
2023/04/16 07:54:10;;;;;;;4.87;4.50;;;18.10;62.80;;;;;;5065737;28;43634;-76
2023/04/16 07:56:40;;;;;;;5.40;4.20;;;18.10;62.90;;;;;;5063838;28;44762;-77
2023/04/16 07:59:08;;;;;;;5.13;4.70;;;18.10;62.70;;;;;;5065819;28;43387;-77
2023/04/16 08:01:52;;;;;;;4.33;4.03;;;18.10;62.50;;;;;;5059548;28;43465;-76
2023/04/16 08:04:24;;;;;;;4.80;4.40;;;18.10;62.60;;;;;;5063180;28;43869;-75
2023/04/16 08:06:53;;;;;;;4.83;4.47;;;18.10;62.80;;;;;;5065592;28;43442;-77
2023/04/16 08:09:22;;;;;;;4.90;4.33;;;18.10;62.90;;;;;;5067517;28;43511;-77
2023/04/16 08:11:52;;;;;;;4.83;4.43;;;18.00;62.80;;;;;;5064647;28;43609;-77
2023/04/16 08:14:20;;;;;;;4.80;4.40;;;18.10;62.80;;;;;;5063102;28;43761;-77
2023/04/16 08:16:51;;;;;;;4.40;4.10;;;18.10;62.50;;;;;;5054684;28;43888;-76
2023/04/16 08:19:18;;;;;;;4.73;4.43;;;18.20;62.30;;;;;;5058810;28;43450;-76
2023/04/16 08:21:47;;;;;;;4.43;4.13;;;18.30;62.00;;;;;;5066650;27;43581;-78
2023/04/16 08:24:15;;;;;;;4.73;4.43;;;18.30;61.60;;;;;;5059257;28;44117;-77
2023/04/16 08:26:43;;;;;;;4.80;4.40;;;18.30;61.90;;;;;;5055917;28;44956;-78
2023/04/16 08:29:12;;;;;;;4.30;3.97;;;18.30;62.00;;;;;;5051747;28;44161;-77
2023/04/16 08:31:40;;;;;;;5.00;4.37;;;18.30;62.00;;;;;;5052523;28;43404;-77
2023/04/16 08:34:10;;;;;;;4.00;3.80;;;18.30;62.00;;;;;;5058020;28;43651;-76
2023/04/16 08:36:38;;;;;;;4.67;4.27;;;18.30;62.40;;;;;;5051181;28;45170;-77
2023/04/16 08:39:06;;;;;;;4.30;4.00;;;18.20;62.50;;;;;;5054147;28;43953;-77
2023/04/16 08:41:35;;;;;;;4.67;4.33;;;18.20;62.60;;;;;;5052187;28;43408;-77
2023/04/16 08:44:06;;;;;;;4.80;4.50;;;18.10;62.50;;;;;;5058721;28;43624;-78
2023/04/16 08:46:38;;;;;;;4.53;4.17;;;18.10;62.50;;;;;;5050749;28;45167;-76
2023/04/16 08:49:07;;;;;;;3.83;3.70;;;18.20;62.70;;;;;;5049524;28;43437;-75
2023/04/16 08:51:35;;;;;;;3.77;3.50;;;18.10;62.80;;;;;;5063480;28;43953;-77
2023/04/16 08:54:04;;;;;;;4.20;3.90;;;18.10;62.90;;;;;;5069123;28;43893;-77
2023/04/16 08:56:32;;;;;;;4.47;4.07;;;18.10;63.00;;;;;;5066808;27;43470;-77
2023/04/16 08:59:03;;;;;;;4.50;4.10;;;18.10;62.90;;;;;;5066092;28;43998;-76
2023/04/16 09:01:32;;;;;;;4.27;3.90;;;18.10;62.80;;;;;;5065990;28;43994;-76
2023/04/16 09:04:02;;;;;;;4.70;4.40;;;18.20;62.50;;;;;;5064481;28;43863;-72
2023/04/16 09:06:31;;;;;;;4.10;3.80;;;18.20;62.30;;;;;;5068835;28;43916;-71
2023/04/16 09:08:59;;;;;;;4.30;3.90;;;18.30;62.50;;;;;;5066846;28;43526;-76
2023/04/16 09:11:27;;;;;;;3.90;3.70;;;18.20;62.50;;;;;;5071311;28;43613;-78
2023/04/16 09:13:55;;;;;;;4.33;4.03;;;18.20;62.50;;;;;;5069592;27;43614;-77
2023/04/16 09:16:23;;;;;;;3.93;3.70;;;18.20;62.50;;;;;;5065629;28;43439;-77
2023/04/16 09:18:54;;;;;;;3.67;3.47;;;18.20;62.70;;;;;;5068272;28;44034;-78
2023/04/16 09:21:23;;;;;;;3.57;3.37;;;18.20;63.00;;;;;;5063561;28;44523;-77
2023/04/16 09:23:53;;;;;;;3.83;3.63;;;18.10;62.90;;;;;;5055608;28;46347;-74
2023/04/16 09:26:21;;;;;;;3.77;3.57;;;18.10;63.00;;;;;;5072931;27;45118;-76
2023/04/16 09:28:49;;;;;;;4.10;3.80;;;18.10;63.00;;;;;;5068181;28;44048;-76
2023/04/16 09:31:18;;;;;;;3.77;3.57;;;18.10;62.90;;;;;;5070519;28;44020;-76
2023/04/16 09:34:01;;;;;;;3.87;3.67;;;18.10;63.10;;;;;;5065939;28;45474;-77
2023/04/16 09:36:31;;;;;;;4.17;3.87;;;18.10;63.10;;;;;;5068596;28;44023;-76
2023/04/16 09:38:59;;;;;;;4.20;3.90;;;18.10;63.20;;;;;;5063017;28;43463;-74
2023/04/16 09:41:28;;;;;;;3.87;3.67;;;18.00;63.10;;;;;;5067690;28;43475;-76
2023/04/16 09:43:57;;;;;;;3.80;3.50;;;18.10;63.20;;;;;;5067456;28;43915;-77
2023/04/16 09:46:25;;;;;;;4.00;3.70;;;18.20;63.00;;;;;;5066331;28;43504;-75
2023/04/16 09:48:53;;;;;;;3.50;3.40;;;18.20;62.60;;;;;;5065447;28;43502;-77
2023/04/16 09:51:21;;;;;;;3.33;3.23;;;18.30;62.40;;;;;;5065928;28;43421;-74
2023/04/16 09:53:53;;;;;;;3.73;3.50;;;18.20;62.40;;;;;;5069547;28;43859;-77
2023/04/16 09:56:24;;;;;;;3.87;3.67;;;18.20;62.70;;;;;;5061884;28;44701;-75
2023/04/16 09:58:57;;;;;;;3.40;3.10;;;18.20;62.90;;;;;;5065252;28;43503;-76
2023/04/16 10:01:27;;;;;;;3.80;3.60;;;18.20;63.10;;;;;;5068981;28;43378;-76
2023/04/16 10:03:55;;;;;;;3.30;3.20;;;18.10;63.10;;;;;;5067192;28;44399;-75
2023/04/16 10:06:25;;;;;;;3.40;3.30;;;18.10;63.30;;;;;;5065413;27;43509;-76
2023/04/16 10:08:55;;;;;;;3.50;3.40;;;18.10;63.30;;;;;;5064852;28;43427;-76
2023/04/16 10:11:24;;;;;;;3.30;3.20;;;18.00;63.30;;;;;;5058019;28;43586;-76
2023/04/16 10:13:52;;;;;;;4.00;3.70;;;18.00;63.30;;;;;;5056824;28;46010;-77
2023/04/16 10:16:20;;;;;;;4.67;3.50;;;18.10;63.30;;;;;;5057445;28;43912;-72
2023/04/16 10:18:48;;;;;;;3.40;3.20;;;18.20;63.20;;;;;;5053265;28;43453;-75
2023/04/16 10:21:16;;;;;;;3.67;3.47;;;18.30;62.80;;;;;;5053788;28;43544;-77
2023/04/16 10:23:45;;;;;;;3.63;3.43;;;18.50;62.50;;;;;;5059411;28;43603;-76
2023/04/16 10:26:17;;;;;;;3.70;3.40;;;18.60;62.20;;;;;;5063864;28;43488;-77
2023/04/16 10:28:45;;;;;;;3.57;3.37;;;18.70;61.40;;;;;;5055098;28;43479;-77
2023/04/16 10:31:13;;;;;;;3.60;3.37;;;18.90;61.10;;;;;;5059623;28;43372;-76
2023/04/16 10:33:41;;;;;;;3.30;3.10;;;19.00;61.60;;;;;;5055680;28;45973;-76
2023/04/16 10:36:10;;;;;;;3.13;2.93;;;19.20;60.50;;;;;;5055148;28;43325;-76
2023/04/16 10:38:39;;;;;;;3.33;3.23;;;19.30;60.30;;;;;;5054624;28;44670;-76
2023/04/16 10:41:07;;;;;;;3.10;3.00;;;19.30;59.90;;;;;;5055779;28;43487;-77
2023/04/16 10:43:44;;;;;;;3.97;3.43;;;19.40;59.80;;;;;;5056176;28;44023;-77
2023/04/16 10:46:19;;;;;;;2.93;2.83;;;19.30;59.80;;;;;;5063943;28;44709;-77
2023/04/16 10:48:47;;;;;;;3.50;3.20;;;19.20;60.00;;;;;;5056680;28;44513;-72
2023/04/16 10:51:25;;;;;;;2.97;2.87;;;19.10;60.30;;;;;;5059686;28;43491;-77
2023/04/16 10:53:54;;;;;;;3.03;2.90;;;18.90;61.00;;;;;;5051412;28;44017;-78
2023/04/16 10:56:26;;;;;;;3.13;2.93;;;18.90;61.40;;;;;;5057792;28;43386;-77
2023/04/16 10:58:56;;;;;;;3.40;3.00;;;18.80;61.40;;;;;;5050970;28;43454;-77
2023/04/16 11:01:30;;;;;;;3.83;3.57;;;18.70;61.60;;;;;;5056862;28;44049;-73
2023/04/16 11:04:00;;;;;;;3.23;3.10;;;18.60;61.80;;;;;;5056933;28;43655;-77
2023/04/16 11:06:30;;;;;;;3.80;3.60;;;18.50;62.20;;;;;;5053593;28;43389;-74
2023/04/16 11:08:58;;;;;;;3.57;3.37;;;18.50;62.50;;;;;;5057396;28;43544;-77
2023/04/16 11:11:26;;;;;;;3.27;3.10;;;18.50;62.50;;;;;;5057565;28;43981;-77
2023/04/16 11:13:56;;;;;;;3.07;2.97;;;18.40;62.50;;;;;;5061544;28;44120;-77
2023/04/16 11:16:25;;;;;;;3.40;3.20;;;18.40;62.60;;;;;;5052946;28;43448;-77
2023/04/16 11:18:55;;;;;;;3.30;3.20;;;18.40;62.80;;;;;;5058091;28;43518;-77
2023/04/16 11:21:24;;;;;;;3.70;3.50;;;18.40;63.00;;;;;;5058256;28;44086;-74
2023/04/16 11:23:52;;;;;;;3.10;3.00;;;18.40;63.00;;;;;;5058164;28;43950;-77
2023/04/16 11:26:24;;;;;;;3.37;3.17;;;18.50;62.90;;;;;;5060123;28;44753;-77
2023/04/16 11:28:55;;;;;;;3.07;2.97;;;18.50;62.60;;;;;;5056575;28;43407;-75
2023/04/16 11:31:25;;;;;;;3.33;3.13;;;18.50;62.30;;;;;;5057287;28;43465;-72
2023/04/16 11:33:55;;;;;;;3.43;3.23;;;18.50;62.40;;;;;;5058623;28;43873;-77
2023/04/16 11:36:24;;;;;;;3.70;3.50;;;18.50;62.70;;;;;;5059035;28;43445;-77
2023/04/16 11:39:01;;;;;;;3.40;3.20;;;18.50;62.70;;;;;;5056519;28;43489;-77
2023/04/16 11:41:29;;;;;;;3.37;3.27;;;18.40;62.50;;;;;;5057796;28;43494;-77
2023/04/16 11:43:58;;;;;;;3.00;2.90;;;18.40;62.60;;;;;;5058738;28;43915;-75
2023/04/16 11:46:37;;;;;;;3.07;2.97;;;18.40;62.90;;;;;;5061616;28;45818;-77
2023/04/16 11:49:05;;;;;;;3.10;3.00;;;18.30;63.10;;;;;;5062893;28;43922;-77
2023/04/16 11:51:33;;;;;;;3.40;3.20;;;18.30;63.10;;;;;;5065580;28;43407;-77
2023/04/16 11:54:01;;;;;;;2.97;2.87;;;18.30;63.00;;;;;;5063412;28;45768;-76
2023/04/16 11:56:30;;;;;;;3.00;2.90;;;18.30;63.10;;;;;;5065182;28;44042;-77
2023/04/16 11:59:12;;;;;;;3.20;3.00;;;18.30;63.30;;;;;;5065307;28;43481;-77
2023/04/16 12:01:44;;;;;;;3.03;2.93;;;18.20;63.40;;;;;;5066081;28;43392;-77
2023/04/16 12:04:13;;;;;;;3.17;3.07;;;18.20;63.30;;;;;;5067535;28;46980;-77
2023/04/16 12:06:41;;;;;;;2.90;2.80;;;18.20;63.20;;;;;;5064780;28;43541;-74
2023/04/16 12:09:26;;;;;;;3.27;3.10;;;18.20;63.40;;;;;;5076749;27;43453;-75
2023/04/16 12:11:53;;;;;;;3.30;3.20;;;18.20;63.50;;;;;;5070670;28;43589;-77
2023/04/16 12:14:25;;;;;;;3.43;3.33;;;18.20;63.50;;;;;;5066957;28;43673;-77
2023/04/16 12:16:53;;;;;;;4.00;3.80;;;18.20;63.70;;;;;;5066987;28;44752;-75
2023/04/16 12:19:21;;;;;;;3.93;3.60;;;18.20;63.70;;;;;;5067267;28;43503;-76
2023/04/16 12:21:50;;;;;;;3.33;3.23;;;18.30;63.50;;;;;;5065779;28;43464;-76
2023/04/16 12:24:21;;;;;;;3.40;3.30;;;18.40;63.20;;;;;;5066777;28;43595;-77
2023/04/16 12:26:54;;;;;;;3.80;3.60;;;18.40;62.90;;;;;;5058275;28;44934;-75
2023/04/16 12:29:24;;;;;;;3.13;2.93;;;18.40;62.90;;;;;;5066205;28;43463;-77
2023/04/16 12:31:52;;;;;;;3.17;3.07;;;18.40;63.20;;;;;;5068850;28;44006;-77
2023/04/16 12:34:21;;;;;;;3.33;3.23;;;18.40;63.10;;;;;;5068361;28;43886;-77
2023/04/16 12:37:06;;;;;;;3.10;3.00;;;18.40;63.00;;;;;;5068286;28;43463;-77
2023/04/16 12:39:34;;;;;;;3.07;2.97;;;18.40;63.20;;;;;;5066305;28;43576;-76
2023/04/16 12:42:02;;;;;;;3.10;3.00;;;18.30;63.20;;;;;;5064689;28;43637;-74
2023/04/16 12:44:32;;;;;;;2.83;2.77;;;18.30;63.30;;;;;;5067673;28;43850;-77
2023/04/16 12:46:59;;;;;;;3.00;2.90;;;18.20;63.50;;;;;;5064616;28;44937;-77
2023/04/16 12:49:29;;;;;;;3.10;3.00;;;18.30;64.20;;;;;;5064003;28;43455;-78
2023/04/16 12:51:57;;;;;;;3.10;2.97;;;18.20;63.50;;;;;;5060405;28;44019;-77
2023/04/16 12:54:27;;;;;;;2.80;2.70;;;18.20;63.50;;;;;;5070051;28;44229;-77